Flight Track Log - Related Links

Times and Time Zones

All times are in EDT time to prevent confusion due to time zone crossing. See the ASH3732 flight status page for this flight to view local times or setup timezone preferences in your user account.

Time Position Orientation Groundspeed Altitude Reporting Facility
EDT Latitude Longitude Course Direction KTS MPH feet Rate Location/Type
Thu 05:02:14 PM 38.9500 -77.5000 North 177 204 1,600  Level Potomac TRACON
Thu 05:03:14 PM 38.9833 -77.5667 303° West 247 284 3,100 2,300 Climbing Potomac TRACON
Thu 05:04:14 PM 39.0500 -77.6333 322° Northwest 282 325 6,200 2,900 Climbing Potomac TRACON
Thu 05:05:00 PM 39.4242 -77.4500 North  Level FlightAware Approximate
Thu 05:05:14 PM 39.1333 -77.6167 North 308 354 8,900  Level Potomac TRACON
Thu 05:06:00 PM 39.5469 -77.4500 North  Level FlightAware Approximate
Thu 05:06:14 PM 39.2167 -77.6000 North 321 369 11,500  Level Potomac TRACON
Thu 05:07:00 PM 39.6697 -77.4500 North  Level FlightAware Approximate
Thu 05:08:33 PM 39.4067 -77.5147 19° North 335 386 16,800  Level Washington Center
Thu 05:09:33 PM 39.5028 -77.4903 11° North 340 391 18,600 1,720 Climbing Washington Center
Thu 05:11:03 PM 39.6436 -77.4361 16° North 348 400 21,100 1,669 Climbing New York Center
Thu 05:12:04 PM 39.7444 -77.3861 21° North 361 415 22,800 1,289 Climbing New York Center
Thu 05:13:04 PM 39.8497 -77.3339 21° North 383 441 23,700 1,190 Climbing New York Center
Thu 05:14:05 PM 39.9611 -77.2767 21° North 402 463 25,200 1,361 Climbing New York Center
Thu 05:15:03 PM 40.0747 -77.2194 21° North 423 487 26,400 1,220 Climbing New York Center
Thu 05:16:03 PM 40.2033 -77.1550 21° North 435 501 27,600 1,240 Climbing New York Center
Thu 05:17:04 PM 40.3214 -77.0953 21° North 445 512 28,900 1,300 Climbing New York Center
Thu 05:18:03 PM 40.4433 -77.0356 20° North 450 518 30,200 1,059 Climbing New York Center
Thu 05:19:03 PM 40.5633 -76.9725 22° Northeast 455 524 31,000 397 Climbing New York Center
Thu 05:20:04 PM 40.6897 -76.9072 21° North 468 539 31,000  Level New York Center
Thu 05:21:05 PM 40.8225 -76.8397 21° North 482 555 31,000  Level New York Center
Thu 05:22:05 PM 40.9506 -76.7769 20° North 488 562 31,000 -508 Level New York Center
Thu 05:23:03 PM 41.0769 -76.7111 21° North 488 562 30,000 -1,017 Descending New York Center
Thu 05:24:03 PM 41.2053 -76.6450 21° North 483 556 29,000 -496 Descending New York Center
Thu 05:25:04 PM 41.3356 -76.5789 21° North 483 556 29,000  Level New York Center
Thu 05:26:03 PM 41.4703 -76.5075 22° Northeast 493 567 29,000  Level New York Center
Thu 05:27:04 PM 41.6028 -76.4358 22° Northeast 503 579 29,000  Level New York Center
Thu 05:28:05 PM 41.7292 -76.3658 22° Northeast 501 577 29,000 -99 Level New York Center
Thu 05:29:05 PM 41.8594 -76.2961 22° Northeast 501 577 28,800 -1,333 Descending New York Center
Thu 05:30:56 PM 42.1056 -76.1678 21° North 511 588 25,200 -1,684 Descending Boston Center
Thu 05:31:56 PM 42.1975 -76.0389 46° Northeast 480 552 24,000 -600 Descending Boston Center
Thu 05:32:56 PM 42.2503 -75.8792 66° East 444 511 24,000  Level Boston Center
Thu 05:33:56 PM 42.2961 -75.7411 66° East 449 517 24,000  Level Boston Center
Thu 05:34:56 PM 42.3528 -75.5811 64° Northeast 455 524 24,000  Level Boston Center
Thu 05:35:56 PM 42.3947 -75.4147 71° East 460 529 24,000 -350 Level Boston Center
Thu 05:36:56 PM 42.4344 -75.2450 72° East 460 529 23,300 -1,700 Descending Boston Center
Thu 05:37:56 PM 42.4697 -75.0831 73° East 455 524 20,600 -2,750 Descending Boston Center
Thu 05:38:56 PM 42.5044 -74.9269 73° East 445 512 17,800 -2,750 Descending Boston Center
Thu 05:39:56 PM 42.5367 -74.7789 73° East 421 484 15,100 -2,649 Descending Boston Center
Thu 05:40:47 PM 42.5667 -74.6419 73° East 388 447 12,900 -2,270 Descending Boston Center
Thu 05:41:47 PM 42.5983 -74.5103 72° East 364 419 10,900 -1,587 Descending Boston Center
Thu 05:42:48 PM 42.6233 -74.3900 74° East 329 379 9,700 -1,377 Descending Boston Center
Thu 05:43:49 PM 42.6461 -74.2750 75° East 308 354 8,100 -1,686 Descending Boston Center
Thu 05:44:49 PM 42.6728 -74.1683 71° East 300 345 6,300 -1,488 Descending Boston Center
Thu 05:45:50 PM 42.7158 -74.0733 58° Northeast 287 330 5,100 -590 Descending Boston Center
Thu 05:46:51 PM 42.7856 -74.0186 30° Northeast 291 335 5,100 -347 Level Boston Center
Thu 05:47:51 PM 42.8608 -73.9981 11° North 279 321 4,400 -843 Descending Boston Center
Thu 05:48:52 PM 42.9378 -74.0000 359° North 268 308 3,400 -720 Descending Boston Center
Thu 05:49:56 PM 42.9639 -73.9183 66° East 194 223 2,900 -645 Descending Boston Center
Thu 05:50:53 PM 42.9461 -73.8414 107° East 220 253 2,100 -407 Descending Boston Center
Thu 05:51:54 PM 42.8944 -73.8117 157° South 206 237 2,100  Level Boston Center

Login

Don't have an account? Register now (free) for customized features, flight alerts, and more!